createdAt,value
2022-09-15T00:00:35.515Z,20.08
2022-09-15T00:03:40.163Z,20.01
2022-09-15T00:06:42.796Z,19.99
2022-09-15T00:09:46.670Z,19.94
2022-09-15T00:12:49.274Z,19.91
2022-09-15T00:15:52.255Z,19.94
2022-09-15T00:18:55.749Z,19.95
2022-09-15T00:21:58.642Z,19.83
2022-09-15T00:25:01.291Z,19.87
2022-09-15T00:28:04.199Z,19.76
2022-09-15T00:31:09.525Z,19.82
2022-09-15T00:34:13.960Z,19.83
2022-09-15T00:37:17.066Z,19.92
2022-09-15T00:40:22.362Z,19.83
2022-09-15T00:44:18.987Z,19.90
2022-09-15T00:47:28.872Z,19.94
2022-09-15T00:50:32.869Z,20.05
2022-09-15T00:53:37.904Z,20.12
2022-09-15T00:56:43.116Z,20.30
2022-09-15T00:59:48.010Z,20.24
2022-09-15T01:02:51.285Z,20.15
2022-09-15T01:05:58.040Z,20.18
2022-09-15T01:09:11.838Z,20.11
2022-09-15T01:12:14.931Z,20.02
2022-09-15T01:15:19.644Z,20.02
2022-09-15T01:18:54.480Z,20.09
2022-09-15T01:22:15.329Z,20.12
2022-09-15T01:25:37.139Z,19.97
2022-09-15T01:28:49.003Z,19.87
2022-09-15T01:32:13.598Z,19.66
2022-09-15T01:35:33.656Z,19.83
2022-09-15T01:38:44.397Z,19.77
2022-09-15T01:41:49.065Z,19.79
2022-09-15T01:44:58.896Z,19.83
2022-09-15T01:48:05.664Z,19.91
2022-09-15T01:51:09.883Z,19.92
2022-09-15T01:54:14.988Z,19.86
2022-09-15T01:57:22.273Z,19.95
2022-09-15T02:00:24.951Z,19.97
2022-09-15T02:03:55.684Z,20.15
2022-09-15T02:07:17.252Z,20.09
2022-09-15T02:10:29.509Z,20.03
2022-09-15T02:13:58.322Z,19.81
2022-09-15T02:17:03.159Z,19.83
2022-09-15T02:20:15.792Z,19.88
2022-09-15T02:23:27.351Z,19.90
2022-09-15T02:26:33.729Z,19.85
2022-09-15T02:29:39.013Z,19.57
2022-09-15T02:32:49.608Z,19.52
2022-09-15T02:35:53.434Z,19.47
2022-09-15T02:39:09.061Z,19.52
2022-09-15T02:42:12.068Z,19.46
2022-09-15T02:45:14.782Z,19.47
2022-09-15T02:48:17.827Z,19.41
2022-09-15T02:51:20.453Z,19.58
2022-09-15T02:54:23.570Z,19.57
2022-09-15T02:57:27.115Z,19.60
2022-09-15T03:00:31.400Z,19.47
2022-09-15T03:03:35.036Z,19.47
2022-09-15T03:06:38.018Z,19.35
2022-09-15T03:09:40.821Z,19.37
2022-09-15T03:12:52.680Z,19.51
2022-09-15T03:15:55.286Z,19.62
2022-09-15T03:18:59.820Z,19.61
2022-09-15T03:22:02.409Z,19.71
2022-09-15T03:25:06.793Z,19.74
2022-09-15T03:28:09.394Z,19.79
2022-09-15T03:31:14.852Z,19.73
2022-09-15T03:34:17.627Z,19.75
2022-09-15T03:37:20.590Z,19.73
2022-09-15T03:40:23.277Z,19.55
2022-09-15T03:43:29.806Z,19.54
2022-09-15T03:46:32.334Z,19.58
2022-09-15T03:49:35.313Z,19.61
2022-09-15T03:52:37.930Z,19.46
2022-09-15T03:55:40.986Z,19.45
2022-09-15T03:58:43.869Z,19.50
2022-09-15T04:01:51.058Z,19.45
2022-09-15T04:04:54.080Z,19.39
2022-09-15T04:07:56.635Z,19.34
2022-09-15T04:11:00.571Z,19.33
2022-09-15T04:14:03.678Z,19.36
2022-09-15T04:17:06.760Z,19.45
2022-09-15T04:20:10.069Z,19.44
2022-09-15T04:23:13.041Z,19.48
2022-09-15T04:26:27.687Z,19.45
2022-09-15T04:29:30.572Z,19.36
2022-09-15T04:32:33.297Z,19.35
2022-09-15T04:35:36.167Z,19.47
2022-09-15T04:38:39.291Z,19.50
2022-09-15T04:41:42.409Z,19.52
2022-09-15T04:44:44.943Z,19.46
2022-09-15T04:47:48.724Z,19.41
2022-09-15T04:50:51.890Z,19.30
2022-09-15T04:53:55.767Z,19.18
2022-09-15T04:56:58.407Z,19.19
2022-09-15T05:00:04.053Z,19.29
2022-09-15T05:03:06.700Z,19.27
2022-09-15T05:06:12.330Z,19.13
2022-09-15T05:09:15.221Z,19.10
2022-09-15T05:12:18.112Z,19.12
2022-09-15T05:15:20.897Z,19.14
2022-09-15T05:18:23.913Z,19.14
2022-09-15T05:21:27.579Z,19.12
2022-09-15T05:24:30.578Z,19.19
2022-09-15T05:27:34.054Z,19.35
2022-09-15T05:30:44.118Z,19.40
2022-09-15T05:33:48.766Z,19.42
2022-09-15T05:36:51.626Z,19.45
2022-09-15T05:39:54.395Z,19.42
2022-09-15T05:42:57.954Z,19.34
2022-09-15T05:46:00.887Z,19.47
2022-09-15T05:49:03.862Z,19.55
2022-09-15T05:52:06.479Z,19.56
2022-09-15T05:55:10.290Z,19.60
2022-09-15T05:58:13.391Z,19.68
2022-09-15T06:01:17.787Z,19.70
2022-09-15T06:04:20.733Z,19.74
2022-09-15T06:07:23.326Z,19.74
2022-09-15T06:10:26.293Z,19.78
2022-09-15T06:13:28.967Z,19.85
2022-09-15T06:16:34.688Z,19.91
2022-09-15T06:19:37.546Z,19.97
2022-09-15T06:22:40.917Z,19.94
2022-09-15T06:25:43.549Z,19.91
2022-09-15T06:28:57.952Z,19.91
2022-09-15T06:32:03.022Z,19.92
2022-09-15T06:35:07.267Z,20.03
2022-09-15T06:38:09.876Z,20.13
2022-09-15T06:41:15.001Z,20.30
2022-09-15T06:44:18.716Z,20.55
2022-09-15T06:47:21.617Z,20.74
2022-09-15T06:50:24.474Z,20.94
2022-09-15T06:53:32.218Z,21.01
2022-09-15T06:56:38.106Z,21.15
2022-09-15T06:59:41.584Z,21.26
2022-09-15T07:02:44.366Z,21.29
2022-09-15T07:05:47.649Z,21.43
2022-09-15T07:08:51.014Z,21.85
2022-09-15T07:11:54.677Z,21.86
2022-09-15T07:14:58.219Z,21.78
2022-09-15T07:18:01.317Z,21.72
2022-09-15T07:21:08.113Z,21.84
2022-09-15T07:24:11.315Z,21.90
2022-09-15T07:27:14.396Z,22.01
2022-09-15T07:30:17.533Z,22.19
2022-09-15T07:33:20.069Z,22.14
2022-09-15T07:36:23.173Z,22.28
2022-09-15T07:39:26.091Z,22.41
2022-09-15T07:42:32.184Z,22.83
2022-09-15T07:45:38.701Z,23.51
2022-09-15T07:48:45.242Z,23.50
2022-09-15T07:51:49.336Z,23.49
2022-09-15T07:54:52.405Z,23.09
2022-09-15T07:58:02.095Z,23.43
2022-09-15T08:01:07.985Z,24.18
2022-09-15T08:04:11.082Z,24.75
2022-09-15T08:07:13.894Z,24.87
2022-09-15T08:10:17.956Z,25.01
2022-09-15T08:13:20.944Z,25.14
2022-09-15T08:16:24.938Z,25.08
2022-09-15T08:19:28.988Z,25.70
2022-09-15T08:22:31.967Z,26.27
2022-09-15T08:25:34.861Z,27.01
2022-09-15T08:28:38.464Z,27.92
2022-09-15T08:31:41.808Z,28.37
2022-09-15T08:34:44.902Z,27.64
2022-09-15T08:37:47.712Z,27.73
2022-09-15T08:40:56.582Z,27.66
2022-09-15T08:44:24.055Z,28.08
2022-09-15T08:47:36.369Z,28.97
2022-09-15T08:50:44.648Z,29.08
2022-09-15T08:53:54.918Z,29.23
2022-09-15T08:56:58.742Z,29.01
2022-09-15T09:00:02.099Z,29.17
2022-09-15T09:03:40.245Z,29.73
2022-09-15T09:06:52.494Z,30.78
2022-09-15T09:10:10.155Z,30.45
2022-09-15T09:13:35.698Z,29.72
2022-09-15T09:17:16.581Z,30.78
2022-09-15T09:20:37.860Z,31.50
2022-09-15T09:24:06.908Z,32.21
2022-09-15T09:27:20.974Z,30.63
2022-09-15T09:30:25.697Z,29.84
2022-09-15T09:33:38.628Z,29.40
2022-09-15T09:36:42.886Z,28.80
2022-09-15T09:39:48.411Z,28.07
2022-09-15T09:42:51.224Z,27.62
2022-09-15T09:45:55.654Z,27.66
2022-09-15T09:49:13.564Z,27.55
2022-09-15T09:52:36.294Z,27.46
2022-09-15T09:55:41.463Z,27.48
2022-09-15T09:58:45.473Z,27.56
2022-09-15T10:02:06.134Z,27.67
2022-09-15T10:05:09.069Z,27.64
2022-09-15T10:08:20.468Z,27.58
2022-09-15T10:11:44.130Z,28.33
2022-09-15T10:14:52.644Z,28.52
2022-09-15T10:17:58.522Z,29.13
2022-09-15T10:21:10.022Z,29.74
2022-09-15T10:24:27.946Z,30.06
2022-09-15T10:27:34.646Z,30.22
2022-09-15T10:30:38.283Z,29.80
2022-09-15T10:33:45.034Z,29.95
2022-09-15T10:36:47.980Z,30.44
2022-09-15T10:39:55.710Z,30.81
2022-09-15T10:43:24.812Z,30.75
2022-09-15T10:46:46.353Z,30.74
2022-09-15T10:50:00.933Z,30.26
2022-09-15T10:53:29.762Z,29.64
2022-09-15T10:56:43.792Z,28.78
2022-09-15T11:00:07.183Z,28.37
2022-09-15T11:03:19.339Z,28.02
2022-09-15T11:06:26.544Z,27.65
2022-09-15T11:09:55.997Z,27.47
2022-09-15T11:13:12.789Z,27.41
2022-09-15T11:16:34.249Z,27.06
2022-09-15T11:20:05.676Z,26.90
2022-09-15T11:23:11.792Z,26.75
2022-09-15T11:26:29.154Z,26.50
2022-09-15T11:29:51.706Z,26.34
2022-09-15T11:33:26.076Z,26.37
2022-09-15T11:36:45.043Z,26.18
2022-09-15T11:40:10.874Z,26.05
2022-09-15T11:43:24.625Z,25.99
2022-09-15T11:46:47.336Z,25.81
2022-09-15T11:50:03.493Z,25.78
2022-09-15T11:53:26.259Z,25.78
2022-09-15T11:56:47.652Z,25.68
2022-09-15T12:00:03.103Z,25.64
2022-09-15T12:03:27.622Z,25.53
2022-09-15T12:06:36.243Z,25.43
2022-09-15T12:09:38.998Z,25.36
2022-09-15T12:12:44.676Z,25.26
2022-09-15T12:15:49.287Z,25.12
2022-09-15T12:18:55.864Z,25.02
2022-09-15T12:22:25.942Z,24.76
2022-09-15T12:26:02.219Z,24.47
2022-09-15T12:29:27.526Z,24.21
2022-09-15T12:32:35.299Z,24.08
2022-09-15T12:35:38.416Z,24.12
2022-09-15T12:38:48.408Z,23.99
2022-09-15T12:41:54.631Z,23.76
2022-09-15T12:45:03.411Z,23.70
2022-09-15T12:48:14.027Z,23.56
2022-09-15T12:51:26.682Z,23.42
2022-09-15T12:54:33.264Z,23.33
2022-09-15T12:57:38.158Z,23.27
2022-09-15T13:01:00.679Z,23.19
2022-09-15T13:04:07.486Z,23.08
2022-09-15T13:07:35.250Z,22.98
2022-09-15T13:10:42.568Z,22.86
2022-09-15T13:13:54.698Z,22.51
2022-09-15T13:17:06.795Z,22.03
2022-09-15T13:20:18.190Z,21.61
2022-09-15T13:23:25.335Z,21.29
2022-09-15T13:26:32.177Z,20.98
2022-09-15T13:29:48.522Z,20.77
2022-09-15T13:33:09.833Z,20.69
2022-09-15T13:36:15.873Z,20.56
2022-09-15T13:40:01.736Z,20.41
2022-09-15T13:43:45.969Z,20.29
2022-09-15T13:46:54.808Z,20.21
2022-09-15T13:50:13.336Z,20.12
2022-09-15T13:53:16.276Z,20.07
2022-09-15T13:56:24.691Z,19.89
2022-09-15T13:59:33.189Z,19.80
2022-09-15T14:02:36.238Z,19.86
2022-09-15T14:05:40.165Z,19.87
2022-09-15T14:08:46.216Z,19.81
2022-09-15T14:11:53.036Z,19.80
2022-09-15T14:14:58.825Z,19.79
2022-09-15T14:18:03.594Z,19.77
2022-09-15T14:21:19.448Z,19.71
2022-09-15T14:24:32.305Z,19.62
2022-09-15T14:27:52.267Z,19.62
2022-09-15T14:31:00.196Z,19.60
2022-09-15T14:34:07.748Z,19.45
2022-09-15T14:37:30.116Z,19.36
2022-09-15T14:40:46.292Z,19.19
2022-09-15T14:43:54.170Z,19.25
2022-09-15T14:47:01.909Z,19.22
2022-09-15T14:50:29.095Z,19.22
2022-09-15T14:53:47.254Z,19.25
2022-09-15T14:57:04.082Z,19.24
2022-09-15T15:00:19.322Z,19.28
2022-09-15T15:03:46.399Z,19.23
2022-09-15T15:07:17.848Z,19.17
2022-09-15T15:10:35.644Z,19.11
2022-09-15T15:13:48.360Z,19.08
2022-09-15T15:16:59.756Z,19.06
2022-09-15T15:20:11.355Z,19.07
2022-09-15T15:23:29.279Z,19.07
2022-09-15T15:26:43.803Z,19.06
2022-09-15T15:29:54.326Z,19.12
2022-09-15T15:33:04.092Z,19.22
2022-09-15T15:36:17.498Z,19.47
2022-09-15T15:39:29.200Z,19.61
2022-09-15T15:42:36.632Z,19.58
2022-09-15T15:45:53.685Z,19.62
2022-09-15T15:49:04.159Z,19.66
2022-09-15T15:52:14.112Z,19.61
2022-09-15T15:55:33.183Z,19.51
2022-09-15T15:58:41.559Z,19.43
2022-09-15T16:01:57.331Z,19.39
2022-09-15T16:05:05.374Z,19.37
2022-09-15T16:08:32.710Z,19.41
2022-09-15T16:11:45.356Z,19.48
2022-09-15T16:14:55.501Z,19.51
2022-09-15T16:18:05.745Z,19.38
2022-09-15T16:21:41.069Z,19.31
2022-09-15T16:24:51.517Z,19.23
2022-09-15T16:28:00.455Z,19.30
2022-09-15T16:31:08.702Z,19.21
2022-09-15T16:34:17.832Z,19.13
2022-09-15T16:37:24.654Z,19.11
2022-09-15T16:40:29.297Z,19.05
2022-09-15T16:43:36.423Z,19.05
2022-09-15T16:46:44.349Z,18.94
2022-09-15T16:49:52.550Z,18.87
2022-09-15T16:53:02.144Z,18.83
2022-09-15T16:56:14.810Z,18.79
2022-09-15T16:59:21.689Z,18.75
2022-09-15T17:02:28.678Z,18.71
2022-09-15T17:05:48.693Z,18.65
2022-09-15T17:08:55.225Z,18.51
2022-09-15T17:12:02.292Z,18.56
2022-09-15T17:15:39.063Z,18.62
2022-09-15T17:18:47.347Z,18.59
2022-09-15T17:21:56.052Z,18.60
2022-09-15T17:25:04.103Z,18.68
2022-09-15T17:28:10.995Z,18.69
2022-09-15T17:31:17.150Z,18.75
2022-09-15T17:34:24.219Z,18.81
2022-09-15T17:37:27.761Z,18.75
2022-09-15T17:40:34.192Z,18.79
2022-09-15T17:43:38.772Z,18.90
2022-09-15T17:46:41.946Z,18.85
2022-09-15T17:49:48.930Z,18.84
2022-09-15T17:52:52.072Z,18.90
2022-09-15T17:55:59.818Z,19.00
2022-09-15T17:59:05.938Z,18.93
2022-09-15T18:02:23.155Z,18.94
2022-09-15T18:05:34.510Z,18.96
2022-09-15T18:08:44.558Z,18.87
2022-09-15T18:15:06.832Z,18.96
2022-09-15T18:18:20.987Z,18.86
2022-09-15T18:21:34.235Z,18.92
2022-09-15T18:24:40.909Z,18.99
2022-09-15T18:27:51.261Z,19.24
2022-09-15T18:30:54.634Z,19.20
2022-09-15T18:33:58.213Z,19.14
2022-09-15T18:37:02.684Z,19.12
2022-09-15T18:40:12.307Z,18.92
2022-09-15T18:43:21.330Z,18.52
2022-09-15T18:46:29.394Z,18.61
2022-09-15T18:49:39.458Z,18.65
2022-09-15T18:52:50.439Z,18.79
2022-09-15T18:55:58.498Z,18.36
2022-09-15T18:59:08.328Z,18.43
2022-09-15T19:02:20.026Z,18.23
2022-09-15T19:05:29.046Z,18.41
2022-09-15T19:08:39.921Z,18.43
2022-09-15T19:11:46.149Z,18.42
2022-09-15T19:14:53.801Z,18.59
2022-09-15T19:17:59.653Z,18.68
2022-09-15T19:21:12.611Z,18.70
2022-09-15T19:24:19.494Z,18.80
2022-09-15T19:27:27.000Z,18.86
2022-09-15T19:30:35.429Z,18.95
2022-09-15T19:33:40.511Z,19.06
2022-09-15T19:36:47.242Z,19.12
2022-09-15T19:39:52.232Z,18.96
2022-09-15T19:42:57.694Z,18.76
2022-09-15T19:46:03.582Z,18.65
2022-09-15T19:49:13.020Z,18.63
2022-09-15T19:52:19.211Z,18.68
2022-09-15T19:55:23.314Z,18.64
2022-09-15T19:58:30.274Z,18.80
2022-09-15T20:01:34.843Z,18.69
2022-09-15T20:08:05.760Z,18.80
2022-09-15T20:11:12.899Z,18.80
2022-09-15T20:14:16.562Z,18.86
2022-09-15T20:17:21.164Z,18.69
2022-09-15T20:20:28.247Z,18.77
2022-09-15T20:23:36.839Z,18.88
2022-09-15T20:26:45.952Z,18.67
2022-09-15T20:29:56.131Z,18.61
2022-09-15T20:33:01.991Z,18.48
2022-09-15T20:36:21.008Z,18.61
2022-09-15T20:39:28.237Z,18.47
2022-09-15T20:42:37.563Z,18.61
2022-09-15T20:45:44.813Z,18.73
2022-09-15T20:48:58.263Z,18.45
2022-09-15T20:52:05.560Z,18.54
2022-09-15T20:55:18.228Z,18.36
2022-09-15T20:58:25.258Z,18.28
2022-09-15T21:01:39.311Z,18.20
2022-09-15T21:04:54.113Z,18.16
2022-09-15T21:08:09.872Z,18.23
2022-09-15T21:11:26.542Z,18.23
2022-09-15T21:14:41.563Z,18.42
2022-09-15T21:17:51.380Z,18.26
2022-09-15T21:21:14.101Z,18.12
2022-09-15T21:24:26.994Z,18.10
2022-09-15T21:27:41.067Z,18.14
2022-09-15T21:30:53.063Z,18.12
2022-09-15T21:34:05.576Z,18.21
2022-09-15T21:37:17.704Z,18.11
2022-09-15T21:40:28.330Z,18.11
2022-09-15T21:43:42.105Z,18.20
2022-09-15T21:46:57.131Z,18.24
2022-09-15T21:50:09.827Z,18.12
2022-09-15T21:53:22.349Z,18.11
2022-09-15T21:56:33.842Z,18.11
2022-09-15T21:59:43.984Z,17.89
2022-09-15T22:02:58.549Z,17.94
2022-09-15T22:06:12.932Z,17.82
2022-09-15T22:09:26.569Z,17.89
2022-09-15T22:12:38.752Z,17.84
2022-09-15T22:15:48.865Z,17.85
2022-09-15T22:18:59.852Z,17.67
2022-09-15T22:22:12.495Z,17.60
2022-09-15T22:25:23.474Z,17.68
2022-09-15T22:28:36.431Z,17.60
2022-09-15T22:31:50.744Z,17.64
2022-09-15T22:35:00.629Z,17.57
2022-09-15T22:38:10.335Z,17.74
2022-09-15T22:41:23.235Z,17.76
2022-09-15T22:44:35.091Z,17.61
2022-09-15T22:47:44.459Z,17.63
2022-09-15T22:50:54.220Z,17.75
2022-09-15T22:54:06.975Z,17.64
2022-09-15T22:57:19.414Z,17.69
2022-09-15T23:00:27.850Z,17.73
2022-09-15T23:03:40.021Z,17.72
2022-09-15T23:06:51.823Z,17.79
2022-09-15T23:10:06.768Z,17.83
2022-09-15T23:13:19.354Z,17.83
2022-09-15T23:16:36.545Z,17.87
2022-09-15T23:19:46.783Z,17.67
2022-09-15T23:22:59.597Z,17.78
2022-09-15T23:26:13.585Z,17.85
2022-09-15T23:29:27.532Z,17.77
2022-09-15T23:32:40.702Z,17.70
2022-09-15T23:35:53.986Z,17.88
2022-09-15T23:39:05.437Z,17.80
2022-09-15T23:42:20.201Z,17.78
2022-09-15T23:45:27.972Z,17.69
2022-09-15T23:48:36.658Z,17.51
2022-09-15T23:51:48.735Z,17.36
2022-09-15T23:55:05.234Z,17.24
2022-09-15T23:58:17.629Z,17.04
